createdAt,value
2018-11-22T00:00:21.571Z,3.50
2018-11-22T00:02:51.880Z,3.60
2018-11-22T00:05:20.766Z,3.40
2018-11-22T00:07:50.327Z,3.40
2018-11-22T00:10:19.191Z,3.30
2018-11-22T00:12:47.900Z,3.40
2018-11-22T00:15:16.999Z,3.40
2018-11-22T00:17:46.372Z,3.20
2018-11-22T00:20:15.012Z,3.50
2018-11-22T00:22:43.510Z,3.20
2018-11-22T00:25:13.051Z,3.20
2018-11-22T00:27:41.613Z,3.20
2018-11-22T00:30:12.215Z,3.10
2018-11-22T00:32:40.751Z,3.20
2018-11-22T00:35:10.826Z,3.30
2018-11-22T00:37:39.813Z,3.20
2018-11-22T00:40:13.271Z,2.80
2018-11-22T00:42:42.318Z,2.80
2018-11-22T00:45:12.662Z,2.80
2018-11-22T00:47:41.241Z,2.80
2018-11-22T00:50:13.945Z,2.60
2018-11-22T00:52:43.283Z,2.60
2018-11-22T00:55:14.271Z,2.70
2018-11-22T00:57:43.138Z,2.50
2018-11-22T01:00:14.630Z,2.50
2018-11-22T01:02:43.552Z,2.50
2018-11-22T01:05:12.966Z,2.50
2018-11-22T01:07:41.507Z,2.40
2018-11-22T01:10:13.260Z,2.30
2018-11-22T01:12:42.147Z,2.30
2018-11-22T01:15:10.718Z,2.50
2018-11-22T01:17:39.172Z,2.50
2018-11-22T01:20:09.541Z,2.20
2018-11-22T01:22:38.310Z,2.20
2018-11-22T01:25:07.773Z,2.30
2018-11-22T01:27:36.616Z,2.20
2018-11-22T01:30:07.469Z,2.20
2018-11-22T01:32:36.078Z,2.10
2018-11-22T01:35:04.889Z,2.20
2018-11-22T01:37:33.370Z,2.30
2018-11-22T01:40:01.880Z,2.20
2018-11-22T01:42:30.379Z,2.20
2018-11-22T01:44:59.196Z,1.90
2018-11-22T01:47:27.660Z,2.10
2018-11-22T01:49:56.099Z,2.20
2018-11-22T01:52:25.334Z,2.10
2018-11-22T01:54:53.773Z,2.00
2018-11-22T01:57:22.252Z,2.10
2018-11-22T01:59:50.707Z,2.10
2018-11-22T02:02:19.531Z,2.10
2018-11-22T02:04:48.002Z,1.70
2018-11-22T02:07:16.530Z,1.90
2018-11-22T02:09:45.340Z,1.80
2018-11-22T02:12:13.843Z,1.80
2018-11-22T02:14:42.328Z,1.80
2018-11-22T02:17:10.786Z,1.60
2018-11-22T02:19:39.267Z,1.90
2018-11-22T02:22:07.825Z,2.10
2018-11-22T02:24:36.277Z,1.80
2018-11-22T02:27:05.225Z,1.60
2018-11-22T02:29:33.781Z,1.80
2018-11-22T02:32:02.231Z,1.70
2018-11-22T02:34:30.759Z,1.80
2018-11-22T02:36:59.267Z,1.60
2018-11-22T02:39:27.728Z,1.70
2018-11-22T02:41:56.453Z,1.40
2018-11-22T02:44:24.945Z,1.50
2018-11-22T02:46:53.510Z,1.40
2018-11-22T02:49:22.289Z,1.40
2018-11-22T02:51:50.750Z,1.60
2018-11-22T02:54:19.561Z,1.50
2018-11-22T02:56:48.041Z,1.60
2018-11-22T02:59:16.489Z,1.50
2018-11-22T03:01:44.979Z,1.40
2018-11-22T03:04:13.418Z,1.20
2018-11-22T03:06:41.917Z,1.30
2018-11-22T03:09:11.583Z,1.40
2018-11-22T03:11:40.821Z,1.40
2018-11-22T03:14:09.302Z,1.40
2018-11-22T03:16:37.771Z,1.30
2018-11-22T03:19:06.635Z,1.20
2018-11-22T03:21:35.131Z,1.40
2018-11-22T03:24:03.704Z,1.20
2018-11-22T03:26:32.195Z,1.20
2018-11-22T03:29:00.653Z,1.10
2018-11-22T03:31:29.125Z,1.30
2018-11-22T03:33:57.669Z,1.20
2018-11-22T03:36:26.080Z,1.20
2018-11-22T03:38:54.812Z,1.30
2018-11-22T03:41:23.295Z,1.20
2018-11-22T03:43:51.730Z,1.20
2018-11-22T03:46:20.563Z,1.20
2018-11-22T03:48:49.042Z,1.50
2018-11-22T03:51:17.568Z,1.10
2018-11-22T03:53:46.018Z,1.50
2018-11-22T03:56:14.516Z,1.60
2018-11-22T03:58:43.069Z,1.60
2018-11-22T04:01:11.808Z,1.60
2018-11-22T04:03:40.277Z,1.50
2018-11-22T04:06:08.772Z,1.60
2018-11-22T04:08:37.239Z,1.60
2018-11-22T04:11:05.890Z,1.70
2018-11-22T04:13:34.336Z,1.90
2018-11-22T04:16:02.797Z,1.60
2018-11-22T04:18:31.663Z,1.60
2018-11-22T04:21:00.452Z,1.70
2018-11-22T04:23:28.952Z,1.60
2018-11-22T04:25:57.434Z,1.60
2018-11-22T04:28:25.876Z,1.80
2018-11-22T04:30:54.346Z,1.60
2018-11-22T04:33:22.860Z,1.60
2018-11-22T04:35:51.702Z,1.60
2018-11-22T04:38:20.205Z,1.70
2018-11-22T04:40:48.761Z,1.80
2018-11-22T04:43:17.236Z,1.90
2018-11-22T04:45:45.672Z,1.80
2018-11-22T04:48:14.195Z,1.80
2018-11-22T04:50:42.675Z,1.80
2018-11-22T04:53:11.134Z,2.10
2018-11-22T04:55:39.635Z,2.00
2018-11-22T04:58:08.071Z,2.00
2018-11-22T05:00:36.620Z,2.00
2018-11-22T05:03:05.337Z,1.80
2018-11-22T05:05:34.189Z,1.80
2018-11-22T05:08:02.688Z,1.80
2018-11-22T05:10:31.199Z,1.80
2018-11-22T05:12:59.976Z,1.80
2018-11-22T05:15:30.124Z,1.70
2018-11-22T05:17:58.609Z,1.80
2018-11-22T05:20:27.092Z,1.90
2018-11-22T12:16:09.622Z,5.50
2018-11-22T12:18:38.136Z,5.00
2018-11-22T12:21:06.708Z,5.10
2018-11-22T12:23:35.216Z,4.80
2018-11-22T12:26:03.714Z,4.80
2018-11-22T12:28:32.234Z,4.80
2018-11-22T12:31:06.458Z,4.80
2018-11-22T12:33:44.289Z,4.70
2018-11-22T12:36:17.967Z,4.60
2018-11-22T12:38:47.280Z,4.80
2018-11-22T12:41:15.779Z,4.60
2018-11-22T12:43:44.404Z,4.70
2018-11-22T12:46:12.955Z,4.70
2018-11-22T12:48:41.891Z,4.80
2018-11-22T12:51:10.716Z,5.00
2018-11-22T12:53:39.229Z,5.10
2018-11-22T12:56:07.747Z,4.60
2018-11-22T12:58:36.304Z,4.90
2018-11-22T13:01:05.259Z,5.20
2018-11-22T13:03:33.753Z,5.10
2018-11-22T13:06:02.254Z,5.10
2018-11-22T13:08:30.742Z,5.10
2018-11-22T13:10:59.264Z,5.30
2018-11-22T13:13:27.831Z,5.60
2018-11-22T13:15:56.378Z,5.80
2018-11-22T13:18:24.893Z,5.50
2018-11-22T13:20:53.454Z,5.80
2018-11-22T13:23:21.957Z,5.70
2018-11-22T13:25:50.446Z,5.20
2018-11-22T13:28:18.939Z,5.60
2018-11-22T13:30:47.420Z,5.60
2018-11-22T13:33:16.103Z,5.60
2018-11-22T13:35:44.635Z,5.80
2018-11-22T13:38:13.167Z,5.70
2018-11-22T13:40:41.797Z,5.40
2018-11-22T13:43:10.344Z,5.80
2018-11-22T13:45:38.795Z,5.80
2018-11-22T13:48:07.353Z,5.70
2018-11-22T13:50:41.945Z,5.40
2018-11-22T13:53:06.634Z,5.80
2018-11-22T13:55:35.206Z,5.80
2018-11-22T13:58:03.757Z,5.70
2018-11-22T14:00:33.185Z,5.80
2018-11-22T14:03:03.165Z,5.90
2018-11-22T14:05:31.677Z,6.10
2018-11-22T14:08:00.259Z,5.80
2018-11-22T14:10:28.769Z,6.20
2018-11-22T14:12:57.289Z,6.10
2018-11-22T14:15:27.067Z,5.90
2018-11-22T14:17:57.051Z,5.80
2018-11-22T14:20:28.068Z,5.70
2018-11-22T14:22:56.605Z,5.70
2018-11-22T14:25:25.117Z,5.60
2018-11-22T14:27:53.600Z,6.30
2018-11-22T14:30:23.582Z,6.10
2018-11-22T14:32:52.360Z,6.10
2018-11-22T14:35:21.540Z,6.10
2018-11-22T14:37:50.959Z,6.00
2018-11-22T14:40:21.086Z,5.80
2018-11-22T14:42:50.268Z,5.50
2018-11-22T14:45:18.863Z,5.10
2018-11-22T14:47:48.435Z,5.00
2018-11-22T14:50:20.816Z,5.30
2018-11-22T14:52:52.630Z,4.90
2018-11-22T14:55:21.128Z,4.80
2018-11-22T14:57:49.649Z,4.80
2018-11-22T15:00:18.155Z,5.00
2018-11-22T15:02:47.390Z,4.80
2018-11-22T15:05:16.182Z,4.70
2018-11-22T15:07:44.987Z,4.80
2018-11-22T15:10:14.754Z,4.60
2018-11-22T15:12:44.315Z,4.40
2018-11-22T15:15:15.397Z,4.60
2018-11-22T15:17:43.918Z,4.40
2018-11-22T15:20:13.738Z,4.40
2018-11-22T15:22:42.892Z,4.30
2018-11-22T15:25:12.964Z,4.40
2018-11-22T15:27:42.118Z,4.20
2018-11-22T15:30:12.601Z,3.90
2018-11-22T15:32:41.164Z,3.80
2018-11-22T15:35:12.550Z,4.10
2018-11-22T15:37:41.313Z,4.10
2018-11-22T15:40:12.244Z,4.10
2018-11-22T15:42:40.793Z,3.90
2018-11-22T15:45:11.505Z,3.90
2018-11-22T15:47:40.126Z,3.90
2018-11-22T15:50:10.750Z,3.90
2018-11-22T15:52:39.487Z,3.70
2018-11-22T15:55:08.387Z,3.90
2018-11-22T15:57:37.298Z,3.60
2018-11-22T16:00:09.575Z,3.70
2018-11-22T16:02:38.082Z,4.00
2018-11-22T16:05:07.850Z,4.00
2018-11-22T16:07:36.467Z,4.00
2018-11-22T16:10:07.387Z,3.80
2018-11-22T16:12:35.926Z,3.90
2018-11-22T16:15:05.175Z,4.10
2018-11-22T16:17:34.137Z,4.10
2018-11-22T16:20:02.687Z,4.10
2018-11-22T16:22:31.199Z,4.00
2018-11-22T16:24:59.723Z,4.70
2018-11-22T16:27:28.254Z,4.60
2018-11-22T16:29:56.771Z,4.50
2018-11-22T16:32:25.254Z,4.30
2018-11-22T16:34:53.712Z,4.10
2018-11-22T16:37:22.215Z,4.50
2018-11-22T16:39:54.213Z,4.40
2018-11-22T16:42:19.321Z,4.40
2018-11-22T16:44:48.055Z,4.90
2018-11-22T16:47:16.543Z,4.50
2018-11-22T16:49:44.970Z,4.60
2018-11-22T16:52:13.495Z,4.60
2018-11-22T16:54:41.942Z,4.50
2018-11-22T16:57:10.468Z,4.40
2018-11-22T16:59:38.915Z,4.30
2018-11-22T17:02:07.407Z,4.30
2018-11-22T17:05:38.407Z,4.10
2018-11-22T17:08:07.544Z,4.10
2018-11-22T17:10:36.377Z,4.40
2018-11-22T17:13:05.420Z,3.90
2018-11-22T17:15:35.529Z,3.80
2018-11-22T17:18:04.975Z,3.90
2018-11-22T17:20:33.745Z,3.70
2018-11-22T17:23:03.122Z,3.80
2018-11-22T17:25:33.490Z,3.80
2018-11-22T17:28:04.108Z,3.90
2018-11-22T17:30:35.134Z,3.50
2018-11-22T17:33:04.333Z,3.50
2018-11-22T17:35:33.285Z,3.30
2018-11-22T17:38:03.000Z,3.20
2018-11-22T17:40:32.988Z,3.30
2018-11-22T17:43:01.638Z,3.40
2018-11-22T17:45:32.626Z,3.10
2018-11-22T17:48:01.279Z,3.00
2018-11-22T17:50:31.852Z,3.00
2018-11-22T17:53:00.481Z,3.00
2018-11-22T17:55:29.970Z,2.90
2018-11-22T17:59:27.926Z,2.80
2018-11-22T18:01:56.838Z,2.80
2018-11-22T18:04:25.320Z,2.60
2018-11-22T18:06:53.819Z,2.70
2018-11-22T18:09:22.320Z,2.70
2018-11-22T18:11:50.860Z,2.70
2018-11-22T18:14:19.385Z,2.50
2018-11-22T18:16:47.982Z,2.50
2018-11-22T18:19:16.486Z,2.50
2018-11-22T18:21:45.088Z,2.60
2018-11-22T18:24:13.581Z,2.70
2018-11-22T18:26:42.077Z,2.50
2018-11-22T18:29:10.579Z,2.60
2018-11-22T18:31:39.370Z,2.60
2018-11-22T18:34:07.926Z,2.60
2018-11-22T18:36:36.743Z,2.50
2018-11-22T18:39:08.655Z,2.50
2018-11-22T18:41:37.727Z,2.70
2018-11-22T18:44:06.418Z,2.60
2018-11-22T18:46:34.949Z,2.90
2018-11-22T18:49:03.863Z,2.90
2018-11-22T18:51:32.841Z,2.60
2018-11-22T18:54:01.329Z,2.90
2018-11-22T18:56:33.145Z,2.60
2018-11-22T18:58:58.489Z,2.70
2018-11-22T19:01:28.225Z,2.60
2018-11-22T19:03:56.751Z,2.80
2018-11-22T19:06:25.232Z,3.00
2018-11-22T19:08:53.944Z,3.00
2018-11-22T19:11:22.436Z,2.80
2018-11-22T19:13:50.973Z,2.70
2018-11-22T19:16:19.584Z,2.90
2018-11-22T19:18:48.668Z,2.70
2018-11-22T19:21:17.213Z,2.70
2018-11-22T19:23:46.095Z,2.70
2018-11-22T19:26:14.606Z,2.70
2018-11-22T19:28:43.425Z,2.50
2018-11-22T19:31:11.959Z,2.50
2018-11-22T19:33:40.448Z,2.40
2018-11-22T19:36:09.282Z,2.50
2018-11-22T19:38:37.911Z,2.50
2018-11-22T19:41:06.653Z,2.20
2018-11-22T19:43:35.659Z,2.20
2018-11-22T19:46:04.295Z,2.40
2018-11-22T19:48:32.840Z,2.40
2018-11-22T19:51:05.589Z,2.20
2018-11-22T19:53:29.978Z,2.30
2018-11-22T19:55:58.483Z,2.40
2018-11-22T19:58:27.378Z,2.10
2018-11-22T20:00:55.904Z,2.30
2018-11-22T20:03:24.434Z,2.40
2018-11-22T20:05:53.005Z,2.30
2018-11-22T20:08:21.566Z,2.80
2018-11-22T20:10:50.901Z,2.60
2018-11-22T20:13:19.918Z,2.70
2018-11-22T20:15:48.487Z,2.50
2018-11-22T20:18:17.030Z,2.40
2018-11-22T20:20:50.062Z,2.50
2018-11-22T20:23:21.239Z,2.70
2018-11-22T20:25:44.104Z,2.30
2018-11-22T20:28:12.629Z,2.20
2018-11-22T20:30:42.698Z,2.20
2018-11-22T20:33:11.203Z,2.10
2018-11-22T20:35:39.733Z,2.10
2018-11-22T20:38:08.815Z,2.10
2018-11-22T20:40:37.643Z,2.20
2018-11-22T20:43:06.679Z,2.00
2018-11-22T20:45:40.938Z,2.20
2018-11-22T20:48:07.732Z,2.20
2018-11-22T20:50:36.619Z,1.90
2018-11-22T20:53:05.489Z,2.10
2018-11-22T20:55:35.724Z,2.10
2018-11-22T20:58:05.453Z,2.20
2018-11-22T21:00:35.429Z,2.00
2018-11-22T21:03:03.989Z,2.00
2018-11-22T21:05:32.734Z,1.80
2018-11-22T21:08:01.283Z,2.00
2018-11-22T21:10:31.242Z,1.80
2018-11-22T21:12:59.967Z,2.10
2018-11-22T21:15:30.135Z,2.10
2018-11-22T21:18:00.328Z,2.10
2018-11-22T21:20:30.481Z,2.10
2018-11-22T21:22:59.030Z,2.10
2018-11-22T21:25:28.129Z,2.00
2018-11-22T21:27:56.795Z,2.00
2018-11-22T21:30:28.862Z,2.00
2018-11-22T21:32:57.957Z,2.10
2018-11-22T21:35:26.467Z,2.40
2018-11-22T21:37:55.901Z,2.30
2018-11-22T21:40:25.017Z,2.60
2018-11-22T21:42:53.542Z,2.60
2018-11-22T21:45:23.254Z,2.50
2018-11-22T21:47:51.819Z,2.60
2018-11-22T21:50:21.828Z,2.60
2018-11-22T21:52:50.494Z,2.40
2018-11-22T21:55:20.380Z,2.40
2018-11-22T21:57:49.268Z,2.60
2018-11-22T22:00:21.369Z,2.50
2018-11-22T22:02:52.782Z,2.40
2018-11-22T22:05:20.236Z,2.80
2018-11-22T22:07:48.812Z,2.50
2018-11-22T22:10:17.332Z,2.50
2018-11-22T22:12:45.875Z,2.70
2018-11-22T22:15:17.138Z,2.80
2018-11-22T22:17:46.194Z,2.60
2018-11-22T22:20:18.434Z,2.90
2018-11-22T22:22:47.020Z,3.00
2018-11-22T22:25:17.027Z,2.90
2018-11-22T22:27:45.949Z,2.90
2018-11-22T22:30:16.228Z,2.80
2018-11-22T22:32:45.854Z,2.90
2018-11-22T22:35:14.430Z,2.70
2018-11-22T22:37:42.952Z,2.70
2018-11-22T22:40:13.647Z,2.70
2018-11-22T22:42:43.188Z,2.80
2018-11-22T22:45:12.537Z,2.80
2018-11-22T22:47:41.270Z,3.00
2018-11-22T22:50:12.168Z,2.90
2018-11-22T22:52:40.689Z,2.90
2018-11-22T22:55:09.802Z,2.80
2018-11-22T22:57:38.380Z,3.00
2018-11-22T23:00:16.152Z,2.90
2018-11-22T23:02:44.699Z,2.70
2018-11-22T23:05:13.289Z,3.00
2018-11-22T23:07:41.820Z,3.00
2018-11-22T23:10:10.367Z,3.20
2018-11-22T23:12:38.872Z,3.00
2018-11-22T23:15:09.907Z,3.50
2018-11-22T23:17:38.793Z,3.60
2018-11-22T23:20:10.823Z,3.30
2018-11-22T23:22:39.691Z,3.10
2018-11-22T23:25:08.988Z,3.70
2018-11-22T23:27:37.719Z,3.60
2018-11-22T23:30:26.737Z,3.40
2018-11-22T23:33:01.599Z,3.20
2018-11-22T23:35:30.088Z,3.50
2018-11-22T23:37:58.573Z,3.40
2018-11-22T23:40:28.603Z,3.20
2018-11-22T23:42:57.359Z,3.30
2018-11-22T23:45:27.446Z,3.20
2018-11-22T23:47:56.106Z,3.40
2018-11-22T23:50:27.578Z,3.20
2018-11-22T23:52:57.217Z,3.40
2018-11-22T23:55:25.768Z,3.20
2018-11-22T23:57:54.297Z,3.40
